Time;durP1;ratioP1;P1;durP2;ratioP2;P2;SDS_P1;SDS_P2;PMS_P1;PMS_P2;Temp;Humidity;BMP_temperature;BMP_pressure;BME280_temperature;BME280_humidity;BME280_pressure;Samples;Min_cycle;Max_cycle;Signal;HPM_P1;HPM_P2
2021/09/03 00:00:50;;;;;;;8.03;5.95;;;;;;;8.63;76.43;100515.78;254059;1097;115754;-65
2021/09/03 00:05:53;;;;;;;9.58;4.13;;;;;;;8.58;76.54;100509.44;255304;1104;116127;-65
2021/09/03 00:10:56;;;;;;;7.70;4.95;;;;;;;8.54;76.77;100514.37;255692;1101;116440;-65
2021/09/03 00:16:00;;;;;;;13.70;6.00;;;;;;;8.51;76.19;100496.17;254199;1101;114939;-68
2021/09/03 00:21:03;;;;;;;7.90;5.55;;;;;;;8.56;76.81;100495.56;254705;1101;115807;-69
2021/09/03 00:26:06;;;;;;;4.65;4.25;;;;;;;8.50;76.64;100493.71;254764;1096;117720;-66
2021/09/03 00:31:09;;;;;;;4.88;4.38;;;;;;;8.37;76.33;100495.31;256160;1102;115634;-66
2021/09/03 00:36:13;;;;;;;5.90;5.08;;;;;;;8.31;77.18;100490.77;256677;1101;115282;-65
2021/09/03 00:41:16;;;;;;;4.20;3.40;;;;;;;8.29;77.09;100486.67;257409;1101;116029;-64
2021/09/03 00:46:19;;;;;;;13.18;4.78;;;;;;;8.28;77.10;100485.86;257118;1101;115192;-63
2021/09/03 00:51:24;;;;;;;8.60;5.13;;;;;;;8.29;77.15;100484.02;254999;1101;115828;-66
2021/09/03 00:56:28;;;;;;;6.18;4.48;;;;;;;8.20;76.58;100480.76;257190;1101;115572;-63
2021/09/03 01:01:32;;;;;;;6.03;5.00;;;;;;;8.21;77.50;100474.42;257092;1102;115147;-64
2021/09/03 01:06:37;;;;;;;5.70;5.20;;;;;;;8.20;76.91;100477.28;254987;1102;115728;-66
2021/09/03 01:11:40;;;;;;;5.63;3.93;;;;;;;8.11;77.27;100468.67;254943;1101;114659;-65
2021/09/03 01:16:44;;;;;;;10.03;4.50;;;;;;;8.02;76.57;100457.41;254374;1101;116971;-65
2021/09/03 01:21:49;;;;;;;10.60;5.05;;;;;;;7.96;77.17;100460.86;255028;1096;115970;-65
2021/09/03 01:26:52;;;;;;;7.28;5.15;;;;;;;7.87;77.00;100455.95;255141;1101;115337;-66
2021/09/03 01:31:55;;;;;;;8.15;5.28;;;;;;;7.78;76.58;100449.98;254179;1102;115753;-66
2021/09/03 01:36:58;;;;;;;7.43;5.43;;;;;;;7.74;77.24;100449.56;254282;1101;118699;-66
2021/09/03 01:42:03;;;;;;;5.75;3.85;;;;;;;7.68;77.15;100445.05;254652;1101;115268;-65
2021/09/03 01:47:07;;;;;;;5.25;4.13;;;;;;;7.63;77.09;100444.03;254560;1101;115772;-65
2021/09/03 01:52:10;;;;;;;7.40;5.83;;;;;;;7.59;77.69;100442.78;254398;1096;116810;-65
2021/09/03 01:57:13;;;;;;;5.70;5.10;;;;;;;7.53;77.62;100433.77;254777;1101;114915;-66
2021/09/03 02:02:15;;;;;;;4.98;4.25;;;;;;;7.50;77.28;100428.04;254075;1101;117878;-65
2021/09/03 02:07:18;;;;;;;10.50;4.98;;;;;;;7.43;77.71;100431.48;254299;1102;115283;-64
2021/09/03 02:12:21;;;;;;;6.75;5.00;;;;;;;7.41;77.33;100420.24;255123;1103;115645;-64
2021/09/03 02:17:25;;;;;;;6.43;4.45;;;;;;;7.34;77.66;100416.73;254139;1096;117169;-67
2021/09/03 02:22:28;;;;;;;8.55;4.15;;;;;;;7.29;77.34;100410.41;256182;1101;115527;-64
2021/09/03 02:27:31;;;;;;;6.25;4.63;;;;;;;7.26;77.33;100416.92;254987;1101;115356;-65
2021/09/03 02:32:34;;;;;;;7.65;5.85;;;;;;;7.19;77.75;100420.55;254502;1101;115718;-65
2021/09/03 02:37:37;;;;;;;6.43;4.55;;;;;;;7.18;77.94;100414.42;255134;1097;115847;-64
2021/09/03 02:42:40;;;;;;;5.25;4.58;;;;;;;7.24;77.64;100407.52;257080;1103;115334;-64
2021/09/03 02:47:43;;;;;;;6.38;5.15;;;;;;;7.22;77.67;100404.25;257183;1104;115372;-66
2021/09/03 02:52:47;;;;;;;5.98;4.38;;;;;;;7.18;77.62;100393.22;257013;1096;118080;-64
2021/09/03 02:57:51;;;;;;;5.35;4.68;;;;;;;7.08;77.74;100380.31;256252;1101;115491;-65
2021/09/03 03:02:56;;;;;;;7.33;5.15;;;;;;;7.02;77.71;100381.12;255367;1096;115070;-65
2021/09/03 03:08:00;;;;;;;7.75;5.00;;;;;;;7.04;78.44;100371.11;254217;1097;115652;-65
2021/09/03 03:13:19;;;;;;;6.15;4.60;;;;;;;7.05;78.34;100370.09;255281;1103;116909;-65
2021/09/03 03:18:22;;;;;;;3.57;3.27;;;;;;;7.02;77.80;100362.56;254500;1104;115958;-64
2021/09/03 03:23:27;;;;;;;3.80;3.35;;;;;;;6.93;78.55;100353.13;254114;1103;115326;-65
2021/09/03 03:28:31;;;;;;;5.13;3.90;;;;;;;6.87;77.73;100359.20;255252;1104;115551;-65
2021/09/03 03:33:35;;;;;;;6.53;4.80;;;;;;;6.89;78.08;100343.92;254325;1096;115547;-65
2021/09/03 03:38:38;;;;;;;5.75;4.33;;;;;;;6.92;78.57;100343.53;254169;1103;115943;-65
2021/09/03 03:43:42;;;;;;;7.45;5.55;;;;;;;6.93;78.83;100349.66;254838;1101;115284;-66
2021/09/03 03:48:46;;;;;;;8.33;5.10;;;;;;;6.93;78.62;100349.66;254825;1101;115981;-65
2021/09/03 03:53:50;;;;;;;7.00;4.43;;;;;;;6.88;78.23;100341.47;254530;1101;115419;-64
2021/09/03 03:58:54;;;;;;;6.85;6.18;;;;;;;6.86;79.19;100335.55;255391;1102;115493;-67
2021/09/03 04:03:58;;;;;;;17.03;6.50;;;;;;;6.90;78.93;100334.14;254472;1096;115613;-66
2021/09/03 04:09:01;;;;;;;11.48;6.70;;;;;;;6.89;78.13;100335.97;254539;1097;115299;-65
2021/09/03 04:14:05;;;;;;;8.13;5.25;;;;;;;6.94;78.50;100325.61;254923;1096;116160;-66
2021/09/03 04:19:09;;;;;;;8.98;6.25;;;;;;;6.93;78.72;100321.32;255245;1103;115436;-65
2021/09/03 04:24:12;;;;;;;7.73;5.90;;;;;;;6.92;78.19;100318.86;254697;1101;115025;-64
2021/09/03 04:29:15;;;;;;;6.10;4.35;;;;;;;6.91;78.53;100309.27;256190;1104;116038;-64
2021/09/03 04:34:18;;;;;;;9.10;5.33;;;;;;;6.96;79.13;100310.33;254102;1102;116154;-64
2021/09/03 04:39:21;;;;;;;8.25;5.15;;;;;;;7.04;79.04;100306.67;255213;1104;114981;-64
2021/09/03 04:44:24;;;;;;;7.25;5.98;;;;;;;7.17;79.19;100314.69;255751;1103;115932;-64
2021/09/03 04:49:27;;;;;;;8.60;5.33;;;;;;;7.30;78.75;100316.58;256921;1103;116002;-64
2021/09/03 04:54:30;;;;;;;9.50;6.50;;;;;;;7.44;79.45;100302.32;256998;1104;115923;-62
2021/09/03 04:59:34;;;;;;;19.08;7.03;;;;;;;7.63;79.10;100300.75;255825;1104;115769;-65
2021/09/03 05:04:38;;;;;;;10.07;5.30;;;;;;;7.77;79.63;100292.59;256767;1097;115938;-64
2021/09/03 05:09:42;;;;;;;6.90;6.18;;;;;;;7.91;79.42;100292.61;255440;1101;115894;-64
2021/09/03 05:14:45;;;;;;;7.57;6.23;;;;;;;8.11;79.55;100290.76;255665;1097;116372;-66
2021/09/03 05:19:49;;;;;;;9.43;7.63;;;;;;;8.36;79.40;100269.72;256686;1101;116510;-64
2021/09/03 05:24:53;;;;;;;14.43;7.63;;;;;;;8.63;80.16;100268.63;255382;1101;115175;-66
2021/09/03 05:29:57;;;;;;;9.78;7.68;;;;;;;8.92;80.54;100271.80;254259;1102;115451;-64
2021/09/03 05:35:01;;;;;;;9.75;8.10;;;;;;;9.23;80.39;100271.04;257124;1103;115427;-64
2021/09/03 05:40:07;;;;;;;11.65;8.93;;;;;;;9.55;81.15;100278.02;257105;1101;115158;-65
2021/09/03 05:45:11;;;;;;;25.55;11.08;;;;;;;9.88;80.79;100266.31;257240;1102;119310;-65
2021/09/03 05:50:16;;;;;;;16.43;10.75;;;;;;;10.15;81.11;100270.38;255050;1102;114978;-64
2021/09/03 05:55:21;;;;;;;15.58;10.28;;;;;;;10.40;81.25;100263.20;254686;1101;116034;-64
2021/09/03 06:00:25;;;;;;;18.15;11.08;;;;;;;10.63;81.46;100259.91;255356;1104;118033;-64
2021/09/03 06:05:29;;;;;;;26.65;14.03;;;;;;;10.91;81.44;100269.22;254158;1104;116946;-64
2021/09/03 06:10:32;;;;;;;18.07;9.60;;;;;;;11.06;81.02;100261.63;254159;1103;115950;-69
2021/09/03 06:15:34;;;;;;;15.20;9.88;;;;;;;11.20;81.33;100259.61;254761;1104;115470;-68
2021/09/03 06:20:38;;;;;;;23.75;13.18;;;;;;;11.38;81.59;100265.70;254966;1101;115365;-68
2021/09/03 06:25:41;;;;;;;24.40;14.00;;;;;;;11.58;81.31;100260.09;255135;1102;116371;-65
2021/09/03 06:30:45;;;;;;;14.98;12.03;;;;;;;11.79;81.37;100262.26;254166;1102;195878;-65
2021/09/03 06:35:48;;;;;;;15.10;9.50;;;;;;;12.03;81.40;100256.94;255588;1103;119577;-66
2021/09/03 06:40:51;;;;;;;17.08;11.23;;;;;;;12.21;81.19;100253.36;255942;1101;115705;-64
2021/09/03 06:45:55;;;;;;;21.33;11.45;;;;;;;12.47;80.79;100248.34;254470;1102;116209;-64
2021/09/03 06:50:59;;;;;;;15.53;11.33;;;;;;;12.78;80.91;100244.45;254144;1102;116334;-65
2021/09/03 06:56:02;;;;;;;17.43;11.05;;;;;;;13.00;80.24;100255.30;257443;1101;115635;-62
2021/09/03 07:01:05;;;;;;;11.85;9.23;;;;;;;13.28;80.23;100240.33;257206;1101;117748;-62
2021/09/03 07:06:09;;;;;;;11.53;9.25;;;;;;;13.59;79.85;100242.49;256975;1101;115419;-63
2021/09/03 07:11:15;;;;;;;9.60;8.48;;;;;;;14.19;79.69;100246.38;255954;1101;115857;-63
2021/09/03 07:16:19;;;;;;;11.95;7.75;;;;;;;15.01;78.51;100238.35;255044;1096;115127;-62
2021/09/03 07:21:24;;;;;;;10.20;6.78;;;;;;;16.46;78.47;100247.95;255606;1102;116064;-63
2021/09/03 07:26:28;;;;;;;8.68;6.73;;;;;;;17.46;76.98;100245.08;255811;1096;115722;-64
2021/09/03 07:31:33;;;;;;;15.40;5.50;;;;;;;18.10;75.97;100247.27;254385;1101;115642;-67
2021/09/03 07:36:37;;;;;;;;;;;;;;;18.36;74.27;100238.05;254456;1101;115937;-64
2021/09/03 07:41:41;;;;;;;5.58;4.78;;;;;;;18.60;73.94;100243.70;255115;1101;103013;-65
2021/09/03 07:46:45;;;;;;;6.30;5.07;;;;;;;18.66;73.14;100233.66;254108;1104;118171;-65
2021/09/03 07:51:48;;;;;;;7.80;3.53;;;;;;;18.67;71.78;100232.58;254453;1103;115962;-65
2021/09/03 07:56:51;;;;;;;3.73;2.65;;;;;;;18.67;71.46;100224.48;254294;1096;115097;-65
2021/09/03 08:01:54;;;;;;;3.86;2.66;;;;;;;18.61;70.73;100215.61;254420;1101;115926;-64
2021/09/03 08:06:58;;;;;;;3.63;2.68;;;;;;;18.50;70.46;100216.69;254436;1101;115781;-64
2021/09/03 08:12:01;;;;;;;1.47;1.37;;;;;;;18.43;69.29;100199.97;254286;1096;115765;-64
2021/09/03 08:17:05;;;;;;;3.38;3.08;;;;;;;18.43;69.64;100203.48;255225;1104;115158;-65
2021/09/03 08:22:08;;;;;;;4.50;2.43;;;;;;;18.67;69.91;100197.47;255335;1104;115650;-62
2021/09/03 08:27:11;;;;;;;3.68;2.30;;;;;;;18.91;68.68;100192.25;255428;1101;115446;-62
2021/09/03 08:32:16;;;;;;;2.13;1.90;;;;;;;19.22;68.42;100193.68;254568;1103;117289;-64
2021/09/03 08:37:20;;;;;;;3.50;2.45;;;;;;;19.59;68.44;100186.92;254078;1104;116944;-67
2021/09/03 08:42:23;;;;;;;4.48;1.83;;;;;;;19.92;67.69;100177.16;254669;1104;117836;-65
2021/09/03 08:47:27;;;;;;;3.30;3.00;;;;;;;20.17;66.54;100168.80;255095;1101;118415;-65
2021/09/03 08:52:30;;;;;;;2.73;2.10;;;;;;;20.43;65.82;100180.17;254249;1103;115959;-65
2021/09/03 08:57:33;;;;;;;1.93;1.75;;;;;;;20.66;64.97;100160.38;257310;1101;115144;-64
2021/09/03 09:02:37;;;;;;;3.60;2.05;;;;;;;20.93;64.29;100143.47;257337;1103;117528;-64
2021/09/03 09:07:40;;;;;;;2.68;2.13;;;;;;;21.21;63.47;100149.86;257512;1101;115665;-65
2021/09/03 09:12:46;;;;;;;3.23;2.30;;;;;;;21.41;63.44;100146.81;257101;1103;115421;-65
2021/09/03 09:17:49;;;;;;;3.80;2.00;;;;;;;21.71;62.77;100141.96;257149;1101;115639;-65
2021/09/03 09:23:03;;;;;;;3.85;2.70;;;;;;;21.93;61.72;100133.17;255767;1101;116702;-65
2021/09/03 09:28:15;;;;;;;2.45;2.25;;;;;;;22.07;61.70;100132.09;254628;1104;118397;-65
2021/09/03 09:33:21;;;;;;;2.33;2.00;;;;;;;22.24;60.80;100128.78;255686;1102;115611;-67
2021/09/03 09:38:30;;;;;;;4.50;2.13;;;;;;;22.44;60.57;100113.97;255133;1104;115307;-65
2021/09/03 09:43:39;;;;;;;2.53;2.33;;;;;;;22.47;59.73;100119.60;254441;1096;115838;-65
2021/09/03 09:48:49;;;;;;;3.00;2.70;;;;;;;22.55;59.21;100106.42;255421;1103;115151;-65
2021/09/03 09:54:14;;;;;;;3.63;2.65;;;;;;;22.75;60.15;100105.95;254353;1104;117162;-67
2021/09/03 09:59:26;;;;;;;4.28;3.83;;;;;;;22.87;59.12;100106.27;254336;1101;115663;-66
2021/09/03 10:04:31;;;;;;;9.00;3.00;;;;;;;22.98;58.55;100106.81;254223;1101;116293;-69
2021/09/03 10:09:35;;;;;;;4.10;3.53;;;;;;;23.06;58.09;100093.29;254283;1101;115855;-67
2021/09/03 10:14:39;;;;;;;6.35;4.28;;;;;;;23.05;57.89;100088.97;254304;1101;115667;-66
2021/09/03 10:19:43;;;;;;;4.73;4.17;;;;;;;23.03;57.39;100082.22;254050;1101;116164;-67
2021/09/03 10:25:03;;;;;;;4.10;3.65;;;;;;;23.08;57.71;100076.67;254409;1101;116431;-67
2021/09/03 10:30:17;;;;;;;14.43;5.20;;;;;;;23.10;57.70;100063.57;254085;1102;116019;-67
2021/09/03 10:35:21;;;;;;;5.25;4.65;;;;;;;23.16;57.47;100056.89;254190;1097;117558;-65
2021/09/03 10:40:33;;;;;;;7.40;5.23;;;;;;;23.08;57.08;100046.76;254256;1101;116284;-66
2021/09/03 10:45:44;;;;;;;6.85;5.55;;;;;;;23.18;56.75;100058.20;255260;1101;115895;-67
2021/09/03 10:50:56;;;;;;;10.43;5.35;;;;;;;23.32;57.02;100049.94;255755;1102;116019;-66
2021/09/03 10:56:09;;;;;;;13.03;6.53;;;;;;;23.38;56.10;100043.26;255226;1101;115719;-65
2021/09/03 11:01:13;;;;;;;6.57;5.47;;;;;;;23.47;56.33;100035.14;255473;1104;115163;-66
2021/09/03 11:06:26;;;;;;;6.48;5.78;;;;;;;23.62;56.49;100037.47;257131;1103;117544;-66
2021/09/03 11:11:37;;;;;;;7.68;5.98;;;;;;;23.76;55.95;100037.38;256715;1103;115535;-67
2021/09/03 11:16:45;;;;;;;7.65;6.83;;;;;;;23.82;55.27;100038.84;257239;1102;137110;-67
2021/09/03 11:21:56;;;;;;;6.83;5.90;;;;;;;23.73;54.75;100036.09;255021;1101;115315;-68
2021/09/03 11:27:04;;;;;;;7.68;6.03;;;;;;;23.67;54.68;100045.50;255858;1103;115601;-68
2021/09/03 11:32:11;;;;;;;14.05;7.15;;;;;;;23.57;54.22;100039.52;254591;1102;115830;-68
2021/09/03 11:37:22;;;;;;;7.00;6.30;;;;;;;23.52;54.98;100026.85;254416;1101;115940;-67
2021/09/03 11:42:30;;;;;;;10.60;8.15;;;;;;;23.43;55.00;100024.08;255134;1097;115570;-67
2021/09/03 11:47:48;;;;;;;7.55;5.80;;;;;;;23.45;55.19;100024.58;254178;1101;115443;-67
2021/09/03 11:52:50;;;;;;;10.33;7.03;;;;;;;23.56;55.18;100019.67;254667;1102;117525;-67
2021/09/03 11:57:57;;;;;;;10.43;7.23;;;;;;;23.60;55.32;100015.21;254480;1095;116931;-67
2021/09/03 12:03:07;;;;;;;8.73;7.17;;;;;;;23.54;54.74;100019.21;254359;1101;115826;-68
2021/09/03 12:08:16;;;;;;;7.40;6.67;;;;;;;23.47;54.44;100018.83;254687;1101;139909;-67
2021/09/03 12:13:22;;;;;;;10.83;7.83;;;;;;;23.31;54.87;100028.48;254219;1101;116235;-68
2021/09/03 12:18:40;;;;;;;9.78;8.78;;;;;;;23.18;54.46;100011.96;254383;1096;116067;-68
2021/09/03 12:23:49;;;;;;;10.58;8.08;;;;;;;23.12;54.52;100024.08;255098;1101;118863;-69
2021/09/03 12:28:54;;;;;;;11.08;7.58;;;;;;;23.04;54.30;100011.22;254068;1101;116899;-68
2021/09/03 12:34:02;;;;;;;12.90;7.78;;;;;;;23.00;54.55;100007.52;254516;1101;117887;-68
2021/09/03 12:39:10;;;;;;;12.60;7.03;;;;;;;22.83;54.73;100005.50;254857;1101;116621;-69
2021/09/03 12:44:43;;;;;;;11.75;8.08;;;;;;;22.54;54.76;100001.57;255264;1101;116566;-69
2021/09/03 12:49:47;;;;;;;9.30;7.45;;;;;;;22.46;54.98;99995.75;254334;1101;116121;-67
2021/09/03 12:54:50;;;;;;;7.57;6.77;;;;;;;22.25;55.40;99989.19;254219;1103;115401;-69
2021/09/03 12:59:54;;;;;;;14.95;7.13;;;;;;;22.08;55.28;99989.01;256358;1101;115683;-68
2021/09/03 13:04:57;;;;;;;10.75;6.90;;;;;;;22.01;55.67;99988.64;257342;1103;115642;-67
2021/09/03 13:10:01;;;;;;;11.30;8.00;;;;;;;22.16;55.72;99982.86;256961;1101;115023;-67
2021/09/03 13:15:05;;;;;;;7.88;6.45;;;;;;;22.21;55.95;99969.19;255918;1101;115767;-67
2021/09/03 13:20:10;;;;;;;9.15;6.68;;;;;;;22.39;56.00;99957.34;257528;1101;115102;-67
2021/09/03 13:25:14;;;;;;;7.30;6.60;;;;;;;22.54;56.03;99968.97;255998;1101;117199;-67
2021/09/03 13:30:19;;;;;;;7.88;6.90;;;;;;;22.61;55.80;99963.92;254283;1103;115567;-70
2021/09/03 13:35:24;;;;;;;8.38;6.88;;;;;;;22.48;55.39;99955.50;254951;1102;114957;-68
2021/09/03 13:40:29;;;;;;;10.03;7.08;;;;;;;22.34;55.81;99943.08;254519;1104;115215;-68
2021/09/03 13:45:39;;;;;;;5.90;5.40;;;;;;;22.20;55.48;99945.85;254377;1101;115238;-67
2021/09/03 13:50:43;;;;;;;7.95;6.20;;;;;;;22.15;55.32;99935.91;254231;1101;116073;-68
2021/09/03 13:55:47;;;;;;;8.27;6.97;;;;;;;22.14;55.61;99922.63;254562;1101;115131;-67
2021/09/03 14:00:51;;;;;;;9.15;5.30;;;;;;;22.10;55.58;99916.20;254247;1101;115380;-69
2021/09/03 14:05:55;;;;;;;7.47;5.50;;;;;;;22.16;55.63;99910.36;254350;1101;115850;-69
2021/09/03 14:10:59;;;;;;;9.20;5.63;;;;;;;22.07;55.02;99914.91;254179;1097;115405;-67
2021/09/03 14:16:04;;;;;;;6.00;5.18;;;;;;;21.99;55.25;99914.83;254264;1101;115030;-67
2021/09/03 14:21:08;;;;;;;7.72;6.22;;;;;;;21.88;55.07;99910.72;254163;1102;115446;-67
2021/09/03 14:26:12;;;;;;;15.43;5.95;;;;;;;21.88;55.10;99908.00;254733;1104;115271;-67
2021/09/03 14:31:15;;;;;;;6.98;5.55;;;;;;;21.88;55.46;99910.72;255086;1103;115474;-67
2021/09/03 14:36:19;;;;;;;8.03;5.28;;;;;;;21.91;55.65;99907.40;254773;1101;115770;-67
2021/09/03 14:41:22;;;;;;;7.48;5.38;;;;;;;21.87;55.56;99899.06;254155;1102;116670;-68
2021/09/03 14:46:25;;;;;;;6.65;5.55;;;;;;;21.85;55.64;99888.51;254012;1101;116761;-71
2021/09/03 14:51:29;;;;;;;8.98;5.93;;;;;;;21.77;55.46;99893.84;254317;1096;115416;-69
2021/09/03 14:56:32;;;;;;;10.20;5.30;;;;;;;21.70;55.53;99880.72;253986;1104;116805;-68
2021/09/03 15:01:35;;;;;;;11.03;5.08;;;;;;;21.64;55.58;99881.13;255507;1104;117394;-67
2021/09/03 15:06:40;;;;;;;8.60;5.60;;;;;;;21.58;56.01;99866.86;256168;1104;115837;-67
2021/09/03 15:11:44;;;;;;;5.98;5.38;;;;;;;21.54;55.85;99879.42;257333;1101;115972;-68
2021/09/03 15:16:48;;;;;;;9.23;5.50;;;;;;;21.47;55.92;99873.60;255924;1101;116047;-68
2021/09/03 15:21:51;;;;;;;11.10;5.75;;;;;;;21.45;55.64;99875.81;255751;1102;116130;-68
2021/09/03 15:26:54;;;;;;;8.08;5.45;;;;;;;21.42;56.15;99877.22;257080;1101;116425;-68
2021/09/03 15:31:58;;;;;;;11.13;4.90;;;;;;;21.35;55.87;99871.42;256806;1101;116108;-69
2021/09/03 15:37:01;;;;;;;4.48;4.08;;;;;;;21.29;56.06;99869.11;254792;1097;116461;-66
2021/09/03 15:42:05;;;;;;;5.73;3.73;;;;;;;21.18;56.16;99866.56;253982;1104;116298;-66
2021/09/03 15:47:08;;;;;;;7.00;4.95;;;;;;;21.08;56.51;99869.50;254254;1101;116159;-66
2021/09/03 15:52:12;;;;;;;6.77;5.47;;;;;;;21.02;56.51;99867.18;254422;1102;116999;-66
2021/09/03 15:57:15;;;;;;;5.55;4.98;;;;;;;20.92;56.85;99859.23;254213;1101;115581;-66
2021/09/03 16:02:19;;;;;;;6.15;4.70;;;;;;;20.91;57.11;99860.33;254398;1101;115778;-66
2021/09/03 16:07:23;;;;;;;6.00;4.85;;;;;;;20.75;57.12;99857.92;254247;1104;116770;-67
2021/09/03 16:12:26;;;;;;;7.03;5.23;;;;;;;20.66;57.52;99853.48;254541;1101;116581;-69
2021/09/03 16:17:34;;;;;;;9.15;5.35;;;;;;;20.55;57.46;99852.05;254273;1101;115729;-66
2021/09/03 16:22:38;;;;;;;9.93;5.93;;;;;;;20.44;58.09;99843.31;254701;1103;117770;-66
2021/09/03 16:27:44;;;;;;;8.18;6.05;;;;;;;20.31;58.30;99842.14;254887;1101;116911;-66
2021/09/03 16:32:49;;;;;;;8.73;5.77;;;;;;;20.19;58.48;99841.78;254386;1101;116464;-66
2021/09/03 16:37:53;;;;;;;8.68;5.43;;;;;;;20.07;58.53;99836.04;254972;1101;116846;-66
2021/09/03 16:42:57;;;;;;;5.97;5.00;;;;;;;19.84;58.47;99838.55;254737;1101;116028;-67
2021/09/03 16:48:00;;;;;;;9.58;6.40;;;;;;;19.66;58.96;99838.54;254085;1104;115346;-69
2021/09/03 16:53:04;;;;;;;6.90;4.68;;;;;;;19.49;59.33;99836.32;255164;1104;117609;-68
2021/09/03 16:58:12;;;;;;;6.83;4.88;;;;;;;19.36;59.84;99831.61;254706;1102;115333;-67
2021/09/03 17:03:16;;;;;;;9.65;5.70;;;;;;;19.22;60.88;99826.13;256458;1101;136692;-67
2021/09/03 17:08:19;;;;;;;7.45;5.70;;;;;;;19.10;61.30;99831.94;257267;1103;115150;-66
2021/09/03 17:13:22;;;;;;;9.05;5.50;;;;;;;18.96;61.47;99838.30;257278;1103;115876;-66
2021/09/03 17:18:25;;;;;;;7.33;5.93;;;;;;;18.81;62.21;99842.00;257227;1102;115929;-66
2021/09/03 17:23:29;;;;;;;5.58;4.55;;;;;;;18.66;62.57;99831.34;257241;1101;115496;-66
2021/09/03 17:28:32;;;;;;;7.23;5.60;;;;;;;18.55;63.05;99835.22;255893;1102;116076;-67
2021/09/03 17:33:36;;;;;;;7.85;5.85;;;;;;;18.38;63.67;99841.83;254768;1102;140146;-67
2021/09/03 17:38:39;;;;;;;6.38;5.73;;;;;;;18.20;64.17;99839.03;254700;1097;115352;-67
2021/09/03 17:43:43;;;;;;;6.63;6.03;;;;;;;18.00;64.23;99837.30;253958;1103;117138;-67
2021/09/03 17:48:51;;;;;;;7.88;6.18;;;;;;;17.80;64.58;99838.23;254238;1101;118271;-68
2021/09/03 17:53:58;;;;;;;9.60;6.93;;;;;;;17.62;65.06;99836.16;254341;1096;116540;-67
2021/09/03 17:59:01;;;;;;;8.85;6.63;;;;;;;17.46;65.24;99843.52;254306;1101;115962;-69
2021/09/03 18:04:05;;;;;;;11.08;6.55;;;;;;;17.29;65.69;99840.38;254307;1101;115046;-67
2021/09/03 18:09:09;;;;;;;11.55;8.35;;;;;;;17.16;65.94;99853.34;254320;1097;115388;-68
2021/09/03 18:14:13;;;;;;;9.23;8.33;;;;;;;17.03;66.17;99848.55;254282;1096;115816;-67
2021/09/03 18:19:17;;;;;;;9.23;7.23;;;;;;;16.86;66.50;99858.81;254296;1097;115810;-67
2021/09/03 18:24:20;;;;;;;9.68;6.95;;;;;;;16.67;66.99;99874.74;254334;1097;116321;-67
2021/09/03 18:29:23;;;;;;;8.23;7.10;;;;;;;16.53;67.08;99872.83;254274;1096;116114;-67
2021/09/03 18:34:26;;;;;;;13.83;6.80;;;;;;;16.30;67.29;99866.92;254167;1104;118218;-67
2021/09/03 18:39:32;;;;;;;8.30;6.48;;;;;;;16.18;67.65;99877.16;254225;1101;116247;-66
2021/09/03 18:44:37;;;;;;;;;;;;;;;16.05;68.36;99867.72;255081;1102;116040;-66
2021/09/03 18:49:41;;;;;;;7.35;6.63;;;;;;;15.96;68.42;99873.88;254850;1096;103240;-66
2021/09/03 18:54:45;;;;;;;13.63;7.40;;;;;;;15.82;68.36;99860.98;254390;1104;115115;-66
2021/09/03 18:59:48;;;;;;;10.30;6.53;;;;;;;15.59;68.51;99866.84;254710;1103;115606;-67
2021/09/03 19:04:53;;;;;;;9.78;7.13;;;;;;;15.39;68.89;99864.03;254719;1104;115751;-67
2021/09/03 19:09:58;;;;;;;7.23;6.18;;;;;;;15.25;69.22;99889.77;257282;1103;115257;-68
2021/09/03 19:15:04;;;;;;;11.48;8.98;;;;;;;15.19;70.04;99904.23;257135;1103;115664;-68
2021/09/03 19:20:11;;;;;;;9.83;8.28;;;;;;;15.28;70.41;99897.31;256915;1101;115184;-68
2021/09/03 19:25:16;;;;;;;10.83;7.55;;;;;;;15.38;70.76;99905.39;257209;1102;115252;-68
2021/09/03 19:30:19;;;;;;;11.43;8.48;;;;;;;15.41;70.28;99912.93;255420;1103;114815;-67
2021/09/03 19:35:23;;;;;;;12.65;9.90;;;;;;;15.41;70.27;99915.61;254162;1101;116120;-68
2021/09/03 19:40:27;;;;;;;12.80;8.90;;;;;;;15.38;70.12;99918.82;255894;1101;115751;-67
2021/09/03 19:45:31;;;;;;;17.13;8.90;;;;;;;15.37;70.31;99925.27;255989;1101;115787;-67
2021/09/03 19:50:35;;;;;;;14.87;10.27;;;;;;;15.31;70.19;99929.80;255889;1101;116162;-68
2021/09/03 19:55:43;;;;;;;9.73;8.73;;;;;;;15.20;69.69;99924.65;254478;1101;116025;-68
2021/09/03 20:00:48;;;;;;;11.78;8.00;;;;;;;15.04;70.05;99929.91;255555;1101;115907;-68
2021/09/03 20:05:52;;;;;;;11.18;8.68;;;;;;;14.93;70.45;99932.81;254243;1101;115823;-68
2021/09/03 20:10:56;;;;;;;11.80;8.67;;;;;;;14.79;69.76;99938.61;254321;1101;115475;-67
2021/09/03 20:16:00;;;;;;;16.85;9.73;;;;;;;14.70;70.36;99939.33;254374;1097;117728;-67
2021/09/03 20:21:04;;;;;;;16.60;9.83;;;;;;;14.59;70.67;99938.46;254330;1101;115486;-69
2021/09/03 20:26:07;;;;;;;12.20;8.88;;;;;;;14.43;70.30;99937.51;254195;1103;115293;-68
2021/09/03 20:31:12;;;;;;;10.83;8.35;;;;;;;14.26;70.23;99944.84;254475;1101;115812;-67
2021/09/03 20:36:16;;;;;;;9.58;7.08;;;;;;;14.17;70.94;99938.31;254397;1102;115578;-67
2021/09/03 20:41:20;;;;;;;14.95;8.78;;;;;;;14.10;70.70;99941.19;254486;1102;115709;-68
2021/09/03 20:46:27;;;;;;;17.10;8.17;;;;;;;13.94;70.94;99941.29;254356;1101;116689;-67
2021/09/03 20:51:31;;;;;;;10.98;7.70;;;;;;;13.76;70.97;99945.90;254494;1101;116411;-66
2021/09/03 20:56:35;;;;;;;11.63;8.30;;;;;;;13.63;71.14;99948.98;254460;1102;115938;-66
2021/09/03 21:01:39;;;;;;;15.38;7.83;;;;;;;13.56;71.35;99958.25;254175;1096;116015;-67
2021/09/03 21:06:43;;;;;;;13.35;7.50;;;;;;;13.43;71.63;99954.89;254890;1101;116023;-66
2021/09/03 21:11:47;;;;;;;11.83;8.60;;;;;;;13.36;72.26;99954.26;254741;1102;115352;-67
2021/09/03 21:16:50;;;;;;;10.53;7.20;;;;;;;13.30;72.29;99963.27;254702;1104;115984;-67
2021/09/03 21:21:55;;;;;;;11.88;7.78;;;;;;;13.18;71.88;99962.55;257178;1103;114689;-67
2021/09/03 21:27:00;;;;;;;11.18;7.98;;;;;;;13.22;72.64;99954.84;257165;1103;115016;-67
2021/09/03 21:32:04;;;;;;;11.30;7.65;;;;;;;13.31;73.35;99962.22;257317;1101;115840;-68
2021/09/03 21:37:08;;;;;;;13.18;8.25;;;;;;;13.42;73.24;99957.82;257402;1101;115543;-67
2021/09/03 21:42:11;;;;;;;14.38;9.60;;;;;;;13.38;73.15;99965.53;254450;1101;115702;-66
2021/09/03 21:47:15;;;;;;;12.93;8.20;;;;;;;13.30;73.29;99965.14;254727;1101;115588;-67
2021/09/03 21:52:18;;;;;;;14.33;9.13;;;;;;;13.25;72.89;99963.20;254307;1101;115587;-68
2021/09/03 21:57:22;;;;;;;12.05;8.98;;;;;;;13.27;73.59;99963.77;256072;1102;116247;-67
2021/09/03 22:02:25;;;;;;;16.45;8.73;;;;;;;13.27;73.34;99970.98;255030;1101;116547;-67
2021/09/03 22:07:31;;;;;;;12.50;9.20;;;;;;;13.15;73.15;99966.53;254629;1103;116348;-67
2021/09/03 22:12:35;;;;;;;11.33;8.90;;;;;;;13.04;73.51;99970.10;254892;1101;115413;-67
2021/09/03 22:17:39;;;;;;;15.53;9.68;;;;;;;12.96;73.72;99980.40;254617;1101;115927;-66
2021/09/03 22:22:42;;;;;;;15.75;9.28;;;;;;;12.88;72.96;99978.94;254805;1101;117080;-66
2021/09/03 22:27:46;;;;;;;11.60;8.70;;;;;;;12.77;73.57;99975.30;254503;1101;116350;-66
2021/09/03 22:32:50;;;;;;;14.50;9.78;;;;;;;12.71;73.47;99978.95;254236;1104;116219;-67
2021/09/03 22:37:53;;;;;;;13.68;9.33;;;;;;;12.56;73.53;99973.33;254303;1104;118306;-66
2021/09/03 22:42:56;;;;;;;13.95;9.15;;;;;;;12.45;73.55;99972.36;254735;1101;115493;-66
2021/09/03 22:47:59;;;;;;;14.53;9.23;;;;;;;12.39;73.41;99970.64;255387;1101;115922;-65
2021/09/03 22:53:02;;;;;;;12.55;9.15;;;;;;;12.28;73.69;99971.50;255883;1101;115624;-66
2021/09/03 22:58:07;;;;;;;13.90;8.70;;;;;;;12.13;73.71;99969.38;254309;1104;115583;-69
2021/09/03 23:03:11;;;;;;;20.40;9.20;;;;;;;12.08;73.72;99977.30;255654;1101;116006;-69
2021/09/03 23:08:14;;;;;;;14.38;9.55;;;;;;;12.04;73.76;99981.49;254649;1101;115668;-66